CDT,Max TemperatureF,Mean TemperatureF,Min TemperatureF,Max Dew PointF,MeanDew PointF,Min DewpointF,Max Humidity, Mean Humidity, Min Humidity, Max Sea Level PressureIn, Mean Sea Level PressureIn, Min Sea Level PressureIn, Max VisibilityMiles, Mean VisibilityMiles, Min VisibilityMiles, Max Wind SpeedMPH, Mean Wind SpeedMPH, Max Gust SpeedMPH,PrecipitationIn, CloudCover, Events, WindDirDegrees
2011-10-1,63,50,37,40,37,33,92,63,34,30.38,30.30,30.22,10,10,10,10,3,16,0.00,0,,25
2011-10-2,69,52,34,45,38,33,96,62,27,30.34,30.26,30.19,10,10,10,8,2,12,0.00,0,,274
2011-10-3,79,59,39,51,43,37,93,61,28,30.26,30.21,30.17,10,10,10,8,1,15,0.00,0,,329
2011-10-4,80,61,41,50,45,40,100,65,30,30.30,30.23,30.17,10,10,7,12,3,15,0.00,0,,126
2011-10-5,81,63,44,51,47,43,93,62,30,30.24,30.18,30.13,10,10,6,14,3,17,0.00,0,,145
2011-10-6,82,64,45,54,49,44,93,64,35,30.22,30.17,30.12,10,10,4,16,7,22,0.00,0,,125
2011-10-7,83,70,56,55,51,46,80,56,31,30.23,30.17,30.12,10,10,10,22,10,28,0.00,0,,162
2011-10-8,83,70,56,56,51,47,80,56,31,30.25,30.22,30.17,10,10,10,17,8,25,0.00,0,,166
2011-10-9,80,64,48,56,50,45,86,59,32,30.32,30.24,30.19,10,10,10,15,4,21,0.00,0,,130
2011-10-10,78,61,44,53,48,42,93,66,38,30.17,30.10,30.00,10,9,1,13,6,16,0.00,0,,134
2011-10-11,75,66,56,63,57,52,100,82,64,30.00,29.94,29.87,10,10,5,14,3,16,0.04,5,Rain-Thunderstorm,154
2011-10-12,68,62,55,61,58,55,100,91,81,29.86,29.76,29.62,10,7,2,15,4,22,0.54,6,Rain-Thunderstorm,132
2011-10-13,70,61,51,57,52,42,100,70,39,29.65,29.59,29.56,10,9,2,24,11,33,0.01,6,Rain,291
2011-10-14,61,55,48,45,42,40,80,66,51,29.85,29.73,29.64,10,10,10,40,15,40,0.00,2,,279
2011-10-15,64,54,43,40,38,32,83,57,30,29.97,29.91,29.85,10,10,10,24,11,32,0.00,0,,276
2011-10-16,61,52,43,46,38,32,83,61,39,29.96,29.87,29.76,10,10,10,23,8,29,0.01,1,Rain,285
2011-10-17,53,44,35,38,34,30,82,64,46,29.98,29.93,29.88,10,10,10,18,8,23,0.00,2,,253
2011-10-18,54,48,41,37,35,33,82,66,50,29.91,29.88,29.85,10,10,10,20,8,24,T,3,,318
2011-10-19,49,47,44,37,35,32,76,66,56,29.87,29.84,29.78,10,10,10,22,13,31,0.00,7,,351
2011-10-20,51,45,38,35,33,30,79,66,52,29.96,29.82,29.75,10,10,10,21,12,29,0.00,4,,299
2011-10-21,59,44,29,33,30,27,89,61,33,30.13,30.08,29.97,10,10,10,15,5,20,0.00,0,,267
2011-10-22,68,51,34,41,36,31,89,62,34,30.08,30.04,30.01,10,10,9,14,3,18,0.00,0,,296
2011-10-23,70,52,34,46,40,33,92,66,40,30.01,29.93,29.83,10,9,7,23,6,33,0.00,2,,231
2011-10-24,67,52,37,46,40,35,100,68,36,30.14,30.06,29.93,10,10,7,16,6,22,0.00,0,,244
2011-10-25,78,64,49,54,48,39,80,60,40,30.03,29.81,29.68,10,10,10,28,9,36,0.01,3,Thunderstorm,188
2011-10-26,55,50,45,48,41,38,86,76,66,30.03,29.95,29.78,10,9,7,15,8,22,0.00,7,,357
2011-10-27,55,43,31,37,33,28,85,63,41,30.17,30.08,30.01,10,10,9,16,3,22,0.01,4,,295
2011-10-28,59,43,27,32,28,24,92,60,28,30.20,30.12,30.04,10,10,9,21,5,25,0.00,3,,239
2011-10-29,57,43,29,28,26,23,78,53,27,30.14,30.08,30.04,10,10,10,16,5,21,0.00,0,,241
2011-10-30,56,44,32,45,35,24,92,69,45,30.06,29.95,29.88,10,10,7,28,10,37,0.05,4,Rain,199
2011-10-31,55,44,32,37,33,30,92,69,46,30.12,30.06,29.99,10,10,10,13,4,16,0.00,2,,264